Terminal Aerodrome Forecast
Issued by NWS

Home | Current Version | Previous Version | Text Only | Print | Product List | Glossary On
Versions: 1 2 3 4 5 6 7 8 9 10 11 12 13 14 15 16 17
000
FTUS45 KABQ 182300
TAFTCC
TAF
KTCC 182335Z 1900/1924 07005KT P6SM BKN080 OVC120
     FM190200 34005KT P6SM SCT002 BKN060
     FM190900 01005KT 1/2SM FG OVC002
     FM191500 28005KT P6SM SCT150=

USA.gov is the U.S. government's official web portal to all federal, state and local government web resources and services.